Time;durP1;ratioP1;P1;durP2;ratioP2;P2;SDS_P1;SDS_P2;PMS_P1;PMS_P2;Temp;Humidity;BMP_temperature;BMP_pressure;BME280_temperature;BME280_humidity;BME280_pressure;Samples;Min_cycle;Max_cycle;Signal;HPM_P1;HPM_P2
2022/06/28 00:02:15;;;;;;;;;;;;;;;12.33;100.00;102022.84;2612822;36;19955;-58
2022/06/28 00:04:43;;;;;;;;;;;;;;;12.31;100.00;102022.06;2614087;36;19957;-60
2022/06/28 00:07:11;;;;;;;;;;;;;;;12.37;100.00;102024.31;2613513;36;19946;-57
2022/06/28 00:09:42;;;;;;;;;;;;;;;12.37;100.00;102025.16;2613684;31;20043;-56
2022/06/28 00:12:10;;;;;;;;;;;;;;;12.40;100.00;102024.06;2613531;31;19951;-55
2022/06/28 00:17:19;;;;;;;;;;;;;;;12.31;100.00;102020.25;2612872;36;19954;-55
2022/06/28 00:19:47;;;;;;;;;;;;;;;12.30;100.00;102017.66;2613386;36;19954;-56
2022/06/28 00:22:15;;;;;;;;;;;;;;;12.36;100.00;102022.59;2612555;36;19946;-56
2022/06/28 00:24:46;;;;;;;;;;;;;;;12.44;100.00;102021.00;2612621;31;19978;-56
2022/06/28 00:27:14;;;;;;;;;;;;;;;12.46;100.00;102023.59;2613474;36;19947;-59
2022/06/28 00:29:42;;;;;;;;;;;;;;;12.40;100.00;102024.06;2613480;36;19960;-56
2022/06/28 00:32:10;;;;;;;;;;;;;;;12.38;100.00;102020.63;2612791;36;19953;-58
2022/06/28 00:34:38;;;;;;;;;;;;;;;12.41;100.00;102014.97;2612543;36;20352;-56
2022/06/28 00:37:06;;;;;;;;;;;;;;;12.38;100.00;102021.50;2612231;36;20420;-57
2022/06/28 00:39:34;;;;;;;;;;;;;;;12.43;100.00;102018.44;2613221;36;19984;-55
2022/06/28 00:42:06;;;;;;;;;;;;;;;12.44;100.00;102031.81;2614332;36;19974;-59
2022/06/28 00:44:34;;;;;;;;;;;;;;;12.42;100.00;102025.66;2613198;36;19962;-56
2022/06/28 00:47:03;;;;;;;;;;;;;;;12.47;100.00;102035.25;2612477;31;20286;-56
2022/06/28 00:49:32;;;;;;;;;;;;;;;12.41;100.00;102031.19;2612308;36;19953;-55
2022/06/28 00:52:02;;;;;;;;;;;;;;;12.47;100.00;102033.41;2614594;31;19946;-55
2022/06/28 00:54:31;;;;;;;;;;;;;;;12.46;100.00;102036.25;2615086;36;20583;-55
2022/06/28 00:56:59;;;;;;;;;;;;;;;12.48;100.00;102042.38;2613860;36;19954;-57
2022/06/28 00:59:30;;;;;;;;;;;;;;;12.47;100.00;102036.13;2613637;36;19950;-56
2022/06/28 01:01:59;;;;;;;;;;;;;;;12.46;100.00;102033.53;2614716;36;20434;-57
2022/06/28 01:04:27;;;;;;;;;;;;;;;12.48;100.00;102045.91;2612543;36;19950;-54
2022/06/28 01:06:56;;;;;;;;;;;;;;;12.52;100.00;102044.72;2613991;36;19955;-57
2022/06/28 01:09:24;;;;;;;;;;;;;;;12.51;100.00;102050.22;2613073;36;19977;-57
2022/06/28 01:11:52;;;;;;;;;;;;;;;12.49;100.00;102049.50;2613278;36;19953;-59
2022/06/28 01:14:21;;;;;;;;;;;;;;;12.46;100.00;102049.75;2613847;31;19954;-57
2022/06/28 01:16:51;;;;;;;;;;;;;;;12.44;100.00;102047.16;2613160;36;19964;-56
2022/06/28 01:19:19;;;;;;;;;;;;;;;12.39;100.00;102058.28;2612934;36;19950;-57
2022/06/28 01:21:49;;;;;;;;;;;;;;;12.41;100.00;102058.19;2614140;31;19954;-55
2022/06/28 01:24:20;;;;;;;;;;;;;;;12.45;100.00;102051.56;2613277;36;19974;-57
2022/06/28 01:26:48;;;;;;;;;;;;;;;12.44;100.00;102056.13;2613794;36;19989;-57
2022/06/28 01:29:17;;;;;;;;;;;;;;;12.36;100.00;102054.97;2614484;36;20407;-57
2022/06/28 01:31:48;;;;;;;;;;;;;;;12.29;100.00;102048.34;2614647;54;19989;-55
2022/06/28 01:34:17;;;;;;;;;;;;;;;12.25;100.00;102059.38;2613396;36;19962;-55
2022/06/28 01:36:45;;;;;;;;;;;;;;;12.21;100.00;102051.63;2613716;36;19950;-57
2022/06/28 01:39:13;;;;;;;;;;;;;;;12.16;100.00;102051.09;2614223;36;19954;-57
2022/06/28 01:41:44;;;;;;;;;;;;;;;12.08;100.00;102052.53;2612974;36;20432;-58
2022/06/28 01:44:12;;;;;;;;;;;;;;;12.05;100.00;102057.34;2613826;36;20483;-54
2022/06/28 01:46:41;;;;;;;;;;;;;;;12.08;100.00;102059.78;2612233;36;20000;-57
2022/06/28 01:49:09;;;;;;;;;;;;;;;12.02;100.00;102065.66;2614106;36;19957;-57
2022/06/28 01:51:37;;;;;;;;;;;;;;;12.01;100.00;102062.09;2614351;36;19966;-56
2022/06/28 01:54:06;;;;;;;;;;;;;;;12.00;100.00;102059.50;2613148;36;19953;-57
2022/06/28 01:56:35;;;;;;;;;;;;;;;11.99;100.00;102061.34;2612722;31;19951;-56
2022/06/28 01:59:06;;;;;;;;;;;;;;;11.97;100.00;102065.13;2613139;36;19954;-53
2022/06/28 02:01:36;;;;;;;;;;;;;;;11.96;100.00;102060.72;2613193;36;20001;-56
2022/06/28 02:04:18;;;;;;;;;;;;;;;11.91;100.00;102063.72;2613631;36;19951;-55
2022/06/28 02:06:47;;;;;;;;;;;;;;;11.96;100.00;102068.84;2612668;36;19951;-53
2022/06/28 02:09:15;;;;;;;;;;;;;;;11.99;100.00;102074.84;2613524;36;19950;-56
2022/06/28 02:11:43;;;;;;;;;;;;;;;12.02;100.00;102079.16;2613884;36;19950;-57
2022/06/28 02:14:14;;;;;;;;;;;;;;;11.97;100.00;102075.94;2613206;36;19957;-55
2022/06/28 02:16:42;;;;;;;;;;;;;;;11.94;100.00;102073.47;2613457;36;19950;-58
2022/06/28 02:19:10;;;;;;;;;;;;;;;11.95;100.00;102075.19;2614094;36;20010;-55
2022/06/28 02:21:39;;;;;;;;;;;;;;;11.86;100.00;102076.72;2613356;36;19985;-57
2022/06/28 02:24:08;;;;;;;;;;;;;;;11.83;100.00;102074.25;2613759;36;19989;-55
2022/06/28 02:26:36;;;;;;;;;;;;;;;11.79;100.00;102073.59;2613381;31;19953;-55
2022/06/28 02:29:06;;;;;;;;;;;;;;;11.67;100.00;102069.97;2613135;36;19947;-57
2022/06/28 02:31:36;;;;;;;;;;;;;;;11.66;100.00;102072.78;2613831;36;20361;-56
2022/06/28 02:34:05;;;;;;;;;;;;;;;11.62;100.00;102074.00;2613240;36;19946;-56
2022/06/28 02:41:54;;;;;;;;;;;;;;;11.51;100.00;102085.56;2613401;36;19988;-54
2022/06/28 02:44:22;;;;;;;;;;;;;;;11.45;100.00;102086.88;2613104;36;19947;-56
2022/06/28 02:46:53;;;;;;;;;;;;;;;11.41;100.00;102085.38;2613132;36;19961;-57
2022/06/28 02:49:21;;;;;;;;;;;;;;;11.38;100.00;102091.84;2612841;36;19957;-56
2022/06/28 02:51:50;;;;;;;;;;;;;;;11.35;100.00;102099.28;2613834;36;20065;-58
2022/06/28 02:54:18;;;;;;;;;;;;;;;11.31;100.00;102095.13;2612658;36;19989;-57
2022/06/28 02:56:47;;;;;;;;;;;;;;;11.32;100.00;102096.81;2610983;36;19958;-57
2022/06/28 02:59:15;;;;;;;;;;;;;;;11.22;100.00;102102.88;2613826;36;19979;-58
2022/06/28 03:01:43;;;;;;;;;;;;;;;11.25;100.00;102100.91;2613195;31;19950;-57
2022/06/28 03:04:13;;;;;;;;;;;;;;;11.24;100.00;102104.63;2613463;36;19955;-56
2022/06/28 03:06:42;;;;;;;;;;;;;;;11.25;100.00;102095.53;2612711;36;19953;-56
2022/06/28 03:09:10;;;;;;;;;;;;;;;11.25;100.00;102098.22;2613739;36;19954;-58
2022/06/28 03:11:38;;;;;;;;;;;;;;;11.18;100.00;102106.75;2613792;36;19950;-56
2022/06/28 03:14:06;;;;;;;;;;;;;;;11.14;100.00;102105.25;2612775;36;20045;-54
2022/06/28 03:16:34;;;;;;;;;;;;;;;11.07;100.00;102104.00;2613276;36;20432;-54
2022/06/28 03:19:03;;;;;;;;;;;;;;;11.09;100.00;102110.13;2612331;36;20023;-56
2022/06/28 03:21:33;;;;;;;;;;;;;;;11.11;100.00;102116.25;2613368;36;19951;-56
2022/06/28 03:24:01;;;;;;;;;;;;;;;11.13;100.00;102114.31;2612216;36;19954;-54
2022/06/28 03:26:29;;;;;;;;;;;;;;;11.09;100.00;102122.75;2613491;36;19975;-57
2022/06/28 03:28:57;;;;;;;;;;;;;;;11.13;100.00;102119.72;2613703;36;19970;-57
2022/06/28 03:31:26;;;;;;;;;;;;;;;11.10;100.00;102116.34;2613251;36;21454;-56
2022/06/28 03:33:54;;;;;;;;;;;;;;;11.11;100.00;102116.25;2612362;31;20543;-57
2022/06/28 03:36:22;;;;;;;;;;;;;;;11.11;100.00;102118.09;2612909;36;20089;-57
2022/06/28 03:38:52;;;;;;;;;;;;;;;11.09;100.00;102120.91;2613563;36;19954;-56
2022/06/28 03:41:24;;;;;;;;;;;;;;;11.07;100.00;102125.53;2612704;36;19951;-57
2022/06/28 03:43:53;;;;;;;;;;;;;;;11.09;100.00;102122.75;2614106;36;20520;-56
2022/06/28 03:46:21;;;;;;;;;;;;;;;11.13;100.00;102132.31;2612609;36;19950;-57
2022/06/28 03:48:50;;;;;;;;;;;;;;;11.13;100.00;102129.59;2613641;36;19946;-54
2022/06/28 03:51:21;;;;;;;;;;;;;;;11.16;100.00;102129.38;2616118;36;19950;-55
2022/06/28 03:53:55;;;;;;;;;;;;;;;11.21;100.00;102132.63;2612749;47;19956;-57
2022/06/28 03:56:23;;;;;;;;;;;;;;;11.27;100.00;102125.94;2612679;36;20006;-58
2022/06/28 03:58:51;;;;;;;;;;;;;;;11.21;100.00;102130.78;2613428;36;19946;-56
2022/06/28 04:01:19;;;;;;;;;;;;;;;11.25;100.00;102123.38;2612309;36;19995;-56
2022/06/28 04:03:48;;;;;;;;;;;;;;;11.35;100.00;102132.53;2612777;36;19972;-57
2022/06/28 04:06:16;;;;;;;;;;;;;;;11.37;100.00;102133.25;2613149;36;19947;-58
2022/06/28 04:08:44;;;;;;;;;;;;;;;11.47;100.00;102136.16;2612451;36;19942;-57
2022/06/28 04:11:17;;;;;;;;;;;;;;;11.51;100.00;102131.41;2613198;31;19946;-56
2022/06/28 04:13:46;;;;;;;;;;;;;;;11.60;100.00;102137.97;2613317;36;19951;-56
2022/06/28 04:16:14;;;;;;;;;;;;;;;11.64;100.00;102136.78;2612936;36;19957;-57
2022/06/28 04:18:43;;;;;;;;;;;;;;;11.68;100.00;102132.88;2612207;36;19976;-57
2022/06/28 04:21:13;;;;;;;;;;;;;;;11.83;100.00;102144.38;2613753;36;19973;-57
2022/06/28 04:23:41;;;;;;;;;;;;;;;11.96;100.00;102147.06;2613321;36;19955;-53
2022/06/28 04:26:09;;;;;;;;;;;;;;;11.96;100.00;102145.22;2613907;31;19950;-57
2022/06/28 04:28:40;;;;;;;;;;;;;;;12.01;100.00;102151.13;2613796;36;19951;-53
2022/06/28 04:31:09;;;;;;;;;;;;;;;12.00;100.00;102151.25;2613992;36;19981;-56
2022/06/28 04:33:37;;;;;;;;;;;;;;;12.11;100.00;102150.47;2613714;36;19950;-57
2022/06/28 04:36:06;;;;;;;;;;;;;;;12.08;100.00;102148.84;2613767;36;19973;-55
2022/06/28 04:38:34;;;;;;;;;;;;;;;12.16;100.00;102146.44;2614707;36;20942;-56
2022/06/28 04:41:02;;;;;;;;;;;;;;;12.20;100.00;102134.44;2614382;36;20652;-57
2022/06/28 04:43:30;;;;;;;;;;;;;;;12.34;100.00;102143.34;2614206;36;19954;-50
2022/06/28 04:46:01;;;;;;;;;;;;;;;12.42;100.00;102151.72;2611703;36;19951;-59
2022/06/28 04:48:29;;;;;;;;;;;;;;;12.41;100.00;102148.16;2613043;36;19950;-56
2022/06/28 04:51:10;;;;;;;;;;;;;;;12.43;100.00;102150.75;2614709;36;19951;-56
2022/06/28 04:53:38;;;;;;;;;;;;;;;12.55;100.00;102152.50;2614143;36;20237;-55
2022/06/28 04:56:07;;;;;;;;;;;;;;;12.65;100.00;102149.97;2613768;36;20019;-56
2022/06/28 04:58:35;;;;;;;;;;;;;;;12.82;100.00;102148.63;2613904;36;19954;-56
2022/06/28 05:01:06;;;;;;;;;;;;;;;12.78;100.00;102150.72;2613765;31;20429;-55
2022/06/28 05:03:34;;;;;;;;;;;;;;;12.85;100.00;102152.94;2613437;36;20451;-56
2022/06/28 05:06:02;;;;;;;;;;;;;;;12.97;100.00;102155.56;2613908;36;19993;-57
2022/06/28 05:08:30;;;;;;;;;;;;;;;13.00;100.00;102153.59;2613327;36;19989;-54
2022/06/28 05:10:58;;;;;;;;;;;;;;;13.04;100.00;102161.34;2613288;36;19974;-56
2022/06/28 05:13:26;;;;;;;;;;;;;;;13.17;100.00;102158.53;2614398;36;19955;-52
2022/06/28 05:15:54;;;;;;;;;;;;;;;13.34;100.00;102154.53;2612746;36;19947;-54
2022/06/28 05:18:25;;;;;;;;;;;;;;;13.33;100.00;102150.91;2612258;36;19962;-57
2022/06/28 05:20:54;;;;;;;;;;;;;;;13.37;100.00;102150.69;2614181;31;19946;-56
2022/06/28 05:23:22;;;;;;;;;;;;;;;13.50;100.00;102146.06;2611561;36;19954;-55
2022/06/28 05:25:50;;;;;;;;;;;;;;;13.43;100.00;102152.94;2613976;36;19961;-55
2022/06/28 05:28:18;;;;;;;;;;;;;;;13.51;100.00;102150.47;2614198;36;19954;-56
2022/06/28 05:30:46;;;;;;;;;;;;;;;13.61;100.00;102147.88;2613102;36;19971;-58
2022/06/28 05:33:14;;;;;;;;;;;;;;;13.71;100.00;102150.72;2613713;36;19947;-56
2022/06/28 05:35:45;;;;;;;;;;;;;;;13.69;100.00;102149.97;2613553;36;19947;-55
2022/06/28 05:38:13;;;;;;;;;;;;;;;13.79;100.00;102149.06;2611794;31;20443;-57
2022/06/28 05:40:41;;;;;;;;;;;;;;;13.88;100.00;102147.47;2614418;36;19950;-57
2022/06/28 05:43:09;;;;;;;;;;;;;;;13.96;100.00;102144.16;2614198;36;20439;-57
2022/06/28 05:45:37;;;;;;;;;;;;;;;13.95;100.00;102142.41;2612550;36;19951;-58
2022/06/28 05:48:06;;;;;;;;;;;;;;;13.95;100.00;102154.09;2612063;36;19942;-56
2022/06/28 05:50:34;;;;;;;;;;;;;;;14.13;100.00;102151.72;2614249;36;19954;-58
2022/06/28 05:53:05;;;;;;;;;;;;;;;14.22;100.00;102141.94;2612166;36;20002;-55
2022/06/28 05:55:33;;;;;;;;;;;;;;;14.35;100.00;102141.78;2589617;36;19959;-56
2022/06/28 05:58:01;;;;;;;;;;;;;;;14.40;100.00;102138.69;2612172;36;19955;-57
2022/06/28 06:00:29;;;;;;;;;;;;;;;14.48;100.00;102138.91;2613445;36;19954;-57
2022/06/28 06:02:57;;;;;;;;;;;;;;;14.45;100.00;102129.19;2612971;31;20419;-56
2022/06/28 06:05:25;;;;;;;;;;;;;;;14.54;100.00;102139.22;2613400;36;20337;-57
2022/06/28 06:07:53;;;;;;;;;;;;;;;14.78;100.00;102140.00;2612589;36;20012;-59
2022/06/28 06:10:24;;;;;;;;;;;;;;;14.89;100.00;102126.38;2612354;36;19955;-58
2022/06/28 06:12:52;;;;;;;;;;;;;;;14.92;100.00;102133.41;2612548;36;19955;-56
2022/06/28 06:15:20;;;;;;;;;;;;;;;15.04;100.00;102135.03;2612552;36;19951;-57
2022/06/28 06:17:49;;;;;;;;;;;;;;;14.95;100.00;102147.53;2612617;36;19950;-58
2022/06/28 06:20:17;;;;;;;;;;;;;;;14.95;100.00;102147.53;2613190;31;20324;-59
2022/06/28 06:22:47;;;;;;;;;;;;;;;15.20;100.00;102142.69;2613443;36;19951;-57
2022/06/28 06:25:16;;;;;;;;;;;;;;;15.80;100.00;102144.63;2613413;31;20030;-57
2022/06/28 06:27:47;;;;;;;;;;;;;;;16.14;100.00;102136.16;2610980;36;19966;-58
2022/06/28 06:30:15;;;;;;;;;;;;;;;16.02;100.00;102136.28;2608074;36;19954;-59
2022/06/28 06:32:43;;;;;;;;;;;;;;;15.72;100.00;102137.16;2611963;31;19973;-60
2022/06/28 06:35:12;;;;;;;;;;;;;;;15.61;100.00;102146.28;2612777;36;20427;-60
2022/06/28 06:37:40;;;;;;;;;;;;;;;15.99;100.00;102138.38;2612487;36;19950;-57
2022/06/28 06:40:09;;;;;;;;;;;;;;;16.11;100.00;102145.44;2613100;36;19950;-57
2022/06/28 06:42:37;;;;;;;;;;;;;;;15.81;100.00;102140.94;2612460;36;19950;-57
2022/06/28 06:45:08;;;;;;;;;;;;;;;16.04;100.00;102147.00;2612459;36;19951;-54
2022/06/28 06:47:36;;;;;;;;;;;;;;;16.20;100.00;102149.16;2612314;36;19950;-57
2022/06/28 06:50:08;;;;;;;;;;;;;;;16.29;100.00;102148.31;2611874;36;19989;-55
2022/06/28 06:52:36;;;;;;;;;;;;;;;16.24;100.00;102153.31;2611810;36;19975;-56
2022/06/28 06:55:04;;;;;;;;;;;;;;;16.50;100.00;102152.75;2612074;36;19968;-58
2022/06/28 06:57:32;;;;;;;;;;;;;;;16.62;100.00;102151.56;2611456;36;19980;-57
2022/06/28 07:00:00;;;;;;;;;;;;;;;16.33;100.00;102151.56;2611956;36;19951;-59
2022/06/28 07:02:31;;;;;;;;;;;;;;;16.61;100.00;102158.88;2611790;31;19946;-59
2022/06/28 07:04:59;;;;;;;;;;;;;;;16.52;100.00;102158.88;2611899;36;19958;-56
2022/06/28 07:07:27;;;;;;;;;;;;;;;16.61;100.00;102147.16;2613760;36;20359;-58
2022/06/28 07:09:56;;;;;;;;;;;;;;;16.48;100.00;102154.75;2610627;36;19954;-57
2022/06/28 07:12:24;;;;;;;;;;;;;;;16.80;100.00;102146.28;2610805;36;19951;-58
2022/06/28 07:14:52;;;;;;;;;;;;;;;17.06;100.00;102153.84;2613027;36;20351;-57
2022/06/28 07:17:20;;;;;;;;;;;;;;;17.13;100.00;102153.09;2610429;36;19962;-56
2022/06/28 07:19:51;;;;;;;;;;;;;;;17.71;100.00;102156.59;2613493;36;19959;-58
2022/06/28 07:22:19;;;;;;;;;;;;;;;18.09;100.00;102149.22;2612386;31;19954;-55
2022/06/28 07:24:47;;;;;;;;;;;;;;;18.14;100.00;102141.44;2613106;36;19954;-58
2022/06/28 07:27:15;;;;;;;;;;;;;;;18.55;100.00;102149.13;2590579;31;19981;-58
2022/06/28 07:29:43;;;;;;;;;;;;;;;17.82;100.00;102142.75;2612827;31;19950;-60
2022/06/28 07:32:11;;;;;;;;;;;;;;;17.64;100.00;102156.34;2611435;36;19951;-58
2022/06/28 07:34:39;;;;;;;;;;;;;;;17.95;100.00;102166.09;2612900;36;19985;-59
2022/06/28 07:37:10;;;;;;;;;;;;;;;17.99;100.00;102159.31;2611612;36;19955;-58
2022/06/28 07:39:39;;;;;;;;;;;;;;;18.20;100.00;102164.50;2613565;36;19946;-58
2022/06/28 07:42:07;;;;;;;;;;;;;;;18.55;100.00;102166.34;2613323;36;19946;-59
2022/06/28 07:44:35;;;;;;;;;;;;;;;18.87;100.00;102153.16;2609872;36;19973;-58
2022/06/28 07:47:03;;;;;;;;;;;;;;;18.50;100.00;102156.94;2613142;36;20352;-58
2022/06/28 07:54:55;;;;;;;;;;;;;;;18.63;100.00;102156.53;2612790;36;20061;-59
2022/06/28 07:57:23;;;;;;;;;;;;;;;18.67;100.00;102147.03;2612832;36;19985;-59
2022/06/28 07:59:51;;;;;;;;;;;;;;;18.52;100.00;102149.44;2614406;36;20326;-60
2022/06/28 08:02:19;;;;;;;;;;;;;;;18.62;100.00;102152.94;2612906;31;20068;-62
2022/06/28 08:04:47;;;;;;;;;;;;;;;18.17;100.00;102146.56;2612086;36;19977;-58
2022/06/28 08:07:18;;;;;;;;;;;;;;;17.78;100.00;102143.22;2612521;36;19973;-60
2022/06/28 08:09:46;;;;;;;;;;;;;;;17.96;100.00;102143.28;2613644;31;19954;-56
2022/06/28 08:12:14;;;;;;;;;;;;;;;18.21;100.00;102141.66;2612729;36;20348;-60
2022/06/28 08:14:43;;;;;;;;;;;;;;;18.60;100.00;102137.78;2611847;36;19970;-59
2022/06/28 08:17:11;;;;;;;;;;;;;;;18.84;100.00;102137.94;2612947;36;19950;-59
2022/06/28 08:19:39;;;;;;;;;;;;;;;18.79;100.00;102136.72;2611512;36;19954;-60
2022/06/28 08:22:07;;;;;;;;;;;;;;;18.95;100.00;102128.69;2613101;36;20420;-56
2022/06/28 08:24:38;;;;;;;;;;;;;;;18.96;100.00;102132.25;2612863;36;19951;-60
2022/06/28 08:27:07;;;;;;;;;;;;;;;19.13;100.00;102130.50;2605668;36;20439;-58
2022/06/28 08:29:35;;;;;;;;;;;;;;;19.31;100.00;102122.22;2612113;36;19951;-58
2022/06/28 08:32:06;;;;;;;;;;;;;;;19.92;100.00;102120.25;2613276;36;19951;-60
2022/06/28 08:34:34;;;;;;;;;;;;;;;19.29;100.00;102114.22;2611011;36;19950;-60
2022/06/28 08:37:03;;;;;;;;;;;;;;;19.44;100.00;102115.28;2606599;36;19951;-58
2022/06/28 08:39:31;;;;;;;;;;;;;;;19.53;100.00;102110.72;2611366;36;20042;-58
2022/06/28 08:42:04;;;;;;;;;;;;;;;19.68;100.00;102107.34;2612928;36;19950;-58
2022/06/28 08:44:33;;;;;;;;;;;;;;;19.91;100.00;102107.63;2609456;31;20468;-57
2022/06/28 08:47:02;;;;;;;;;;;;;;;20.19;100.00;102099.13;2610530;31;19947;-59
2022/06/28 08:49:37;;;;;;;;;;;;;;;19.60;100.00;102098.13;2609777;36;19951;-59
2022/06/28 08:52:05;;;;;;;;;;;;;;;19.81;100.00;102105.03;2613242;36;20017;-59
2022/06/28 08:54:34;;;;;;;;;;;;;;;19.57;100.00;102100.34;2612218;36;19955;-58
2022/06/28 08:57:05;;;;;;;;;;;;;;;20.03;100.00;102099.97;2611781;36;19953;-61
2022/06/28 08:59:34;;;;;;;;;;;;;;;19.69;100.00;102098.16;2612306;36;19950;-56
2022/06/28 09:02:02;;;;;;;;;;;;;;;19.30;100.00;102101.41;2613030;36;19977;-59
2022/06/28 09:04:33;;;;;;;;;;;;;;;19.58;100.00;102100.16;2613588;36;19950;-58
2022/06/28 09:07:02;;;;;;;;;;;;;;;19.81;100.00;102107.75;2614008;36;19947;-56
2022/06/28 09:09:30;;;;;;;;;;;;;;;19.51;100.00;102101.00;2611695;36;20503;-58
2022/06/28 09:11:58;;;;;;;;;;;;;;;19.69;100.00;102092.69;2613073;31;19979;-57
2022/06/28 09:14:30;;;;;;;;;;;;;;;19.77;100.00;102090.84;2613192;36;19950;-58
2022/06/28 09:16:59;;;;;;;;;;;;;;;19.73;100.00;102103.09;2614006;36;19955;-59
2022/06/28 09:19:38;;;;;;;;;;;;;;;20.10;100.00;102099.13;2612993;36;19977;-61
2022/06/28 09:22:06;;;;;;;;;;;;;;;19.95;100.00;102095.34;2612071;31;19947;-59
2022/06/28 09:24:35;;;;;;;;;;;;;;;19.95;100.00;102088.00;2612110;36;19951;-58
2022/06/28 09:27:05;;;;;;;;;;;;;;;19.95;100.00;102090.72;2610552;31;19950;-62
2022/06/28 09:29:47;;;;;;;;;;;;;;;19.90;100.00;102084.06;2608436;36;19981;-58
2022/06/28 09:32:15;;;;;;;;;;;;;;;20.25;100.00;102091.09;2610620;31;20020;-59
2022/06/28 09:34:54;;;;;;;;;;;;;;;20.06;100.00;102089.53;2609271;36;20427;-59
2022/06/28 09:37:33;;;;;;;;;;;;;;;20.04;100.00;102088.88;2603329;36;19955;-57
2022/06/28 09:40:10;;;;;;;;;;;;;;;19.66;100.00;102072.03;2611063;36;19947;-60
2022/06/28 09:42:38;;;;;;;;;;;;;;;20.12;100.00;102077.91;2607539;36;20011;-62
2022/06/28 09:45:09;;;;;;;;;;;;;;;20.42;100.00;102080.16;2611498;36;19946;-58
2022/06/28 09:47:42;;;;;;;;;;;;;;;20.48;100.00;102076.75;2612672;36;19950;-59
2022/06/28 09:50:12;;;;;;;;;;;;;;;20.95;100.00;102075.16;2613282;36;19980;-58
2022/06/28 09:52:44;;;;;;;;;;;;;;;20.90;100.00;102072.94;2612660;36;19942;-60
2022/06/28 09:55:15;;;;;;;;;;;;;;;20.53;96.31;102066.13;2612566;36;19955;-60
2022/06/28 09:57:44;;;;;;;;;;;;;;;21.15;100.00;102064.66;2612460;36;19946;-59
2022/06/28 10:00:16;;;;;;;;;;;;;;;21.26;100.00;102064.28;2613195;36;19950;-58
2022/06/28 10:02:45;;;;;;;;;;;;;;;21.03;100.00;102071.56;2613736;31;20365;-58
2022/06/28 10:05:13;;;;;;;;;;;;;;;21.34;100.00;102055.16;2613152;36;19958;-60
2022/06/28 10:07:42;;;;;;;;;;;;;;;21.66;100.00;102062.38;2612723;36;19950;-58
2022/06/28 10:10:11;;;;;;;;;;;;;;;21.06;100.00;102069.31;2612371;36;19954;-57
2022/06/28 10:15:24;;;;;;;;;;;;;;;21.22;100.00;102062.91;2613229;36;19982;-64
2022/06/28 10:17:54;;;;;;;;;;;;;;;20.89;92.29;102059.44;2613186;31;19957;-59
2022/06/28 10:20:24;;;;;;;;;;;;;;;21.52;100.00;102069.50;2611601;36;19962;-61
2022/06/28 10:22:53;;;;;;;;;;;;;;;21.51;89.71;102064.19;2613753;31;19947;-61
2022/06/28 10:25:22;;;;;;;;;;;;;;;21.57;100.00;102059.84;2612518;36;19946;-58
2022/06/28 10:27:51;;;;;;;;;;;;;;;21.11;95.64;102052.34;2611351;36;19987;-59
2022/06/28 10:30:29;;;;;;;;;;;;;;;21.24;90.68;102049.88;2614102;36;19974;-63
2022/06/28 10:32:58;;;;;;;;;;;;;;;21.76;93.87;102042.09;2612606;36;20452;-59
2022/06/28 10:35:41;;;;;;;;;;;;;;;21.64;85.70;102044.41;2613230;36;19963;-58
2022/06/28 10:38:18;;;;;;;;;;;;;;;21.66;97.31;102037.72;2612510;36;19946;-59
2022/06/28 10:40:49;;;;;;;;;;;;;;;22.22;100.00;102036.63;2613083;36;19958;-62
2022/06/28 10:43:17;;;;;;;;;;;;;;;22.69;81.96;102038.25;2611536;36;19969;-58
2022/06/28 10:46:00;;;;;;;;;;;;;;;22.64;96.99;102037.94;2612569;36;19954;-63
2022/06/28 10:48:32;;;;;;;;;;;;;;;22.77;83.09;102029.06;2605518;36;20660;-59
2022/06/28 10:51:01;;;;;;;;;;;;;;;22.51;91.53;102040.50;2612513;36;20027;-60
2022/06/28 10:53:31;;;;;;;;;;;;;;;22.40;86.42;102041.81;2611473;31;19950;-54
2022/06/28 10:56:14;;;;;;;;;;;;;;;22.11;85.92;102032.41;2612060;36;20306;-58
2022/06/28 10:58:55;;;;;;;;;;;;;;;22.15;90.96;102036.50;2613442;36;19946;-60
2022/06/28 11:01:50;;;;;;;;;;;;;;;22.54;85.74;102034.63;2609445;36;20440;-59
2022/06/28 11:04:26;;;;;;;;;;;;;;;22.58;86.79;102035.97;2612341;36;19947;-60
2022/06/28 11:06:56;;;;;;;;;;;;;;;22.31;90.35;102041.00;2612286;36;20046;-62
2022/06/28 11:09:30;;;;;;;;;;;;;;;22.85;92.61;102030.88;2614159;36;20352;-61
2022/06/28 11:12:09;;;;;;;;;;;;;;;22.52;96.23;102023.00;2613501;36;19950;-64
2022/06/28 11:14:46;;;;;;;;;;;;;;;22.55;78.83;102028.94;2611674;36;19957;-60
2022/06/28 11:17:18;;;;;;;;;;;;;;;22.55;81.06;102022.63;2612743;36;19950;-63
2022/06/28 11:19:56;;;;;;;;;;;;;;;22.77;76.97;102014.50;2612850;36;20453;-58
2022/06/28 11:22:25;;;;;;;;;;;;;;;22.91;75.30;102019.16;2610359;36;20084;-57
2022/06/28 11:24:53;;;;;;;;;;;;;;;22.88;77.87;102014.03;2613195;36;20445;-60
2022/06/28 11:27:22;;;;;;;;;;;;;;;23.18;92.90;102005.81;2613587;36;19958;-59
2022/06/28 11:29:54;;;;;;;;;;;;;;;23.06;81.58;102003.50;2612825;31;19950;-58
2022/06/28 11:32:26;;;;;;;;;;;;;;;23.60;78.55;102007.78;2612027;36;19951;-58
2022/06/28 11:35:01;;;;;;;;;;;;;;;24.05;72.61;101998.50;2611868;36;19950;-58
2022/06/28 11:37:30;;;;;;;;;;;;;;;23.79;71.89;102000.78;2611996;36;19968;-60
2022/06/28 11:39:59;;;;;;;;;;;;;;;23.36;74.41;102000.72;2611554;36;19989;-62
2022/06/28 11:42:28;;;;;;;;;;;;;;;23.25;77.54;102001.25;2613243;36;19950;-58
2022/06/28 11:44:56;;;;;;;;;;;;;;;23.73;72.20;101998.81;2612636;36;19975;-59
2022/06/28 11:47:24;;;;;;;;;;;;;;;23.35;71.65;102010.03;2612288;36;19979;-58
2022/06/28 11:49:54;;;;;;;;;;;;;;;23.52;75.99;101993.31;2606822;31;20417;-60
2022/06/28 11:52:25;;;;;;;;;;;;;;;23.42;70.11;101994.47;2612478;31;19950;-58
2022/06/28 11:54:56;;;;;;;;;;;;;;;23.77;78.42;102002.84;2613097;36;20034;-58
2022/06/28 11:57:24;;;;;;;;;;;;;;;23.26;67.78;101997.44;2605105;36;19950;-58
2022/06/28 11:59:54;;;;;;;;;;;;;;;23.85;68.97;101998.28;2613492;36;19946;-61
2022/06/28 12:02:37;;;;;;;;;;;;;;;24.10;66.24;101996.88;2612976;36;19957;-58
2022/06/28 12:05:05;;;;;;;;;;;;;;;23.61;62.77;102004.00;2611908;36;19942;-59
2022/06/28 12:07:40;;;;;;;;;;;;;;;23.26;71.86;102000.19;2612469;36;19954;-59
2022/06/28 12:10:12;;;;;;;;;;;;;;;23.51;68.20;101997.09;2610684;36;19957;-60
2022/06/28 12:12:43;;;;;;;;;;;;;;;24.20;64.85;101985.50;2610027;36;19950;-59
2022/06/28 12:15:11;;;;;;;;;;;;;;;24.69;66.36;101983.78;2612929;36;19951;-60
2022/06/28 12:17:47;;;;;;;;;;;;;;;24.26;59.80;101995.72;2612192;36;19971;-58
2022/06/28 12:20:15;;;;;;;;;;;;;;;23.45;71.88;101998.72;2611825;36;19961;-58
2022/06/28 12:22:56;;;;;;;;;;;;;;;23.94;68.99;101988.91;2611909;36;19979;-60
2022/06/28 12:25:24;;;;;;;;;;;;;;;24.18;71.45;101989.53;2612556;36;19947;-61
2022/06/28 12:27:52;;;;;;;;;;;;;;;24.41;66.96;101984.63;2612138;36;20420;-57
2022/06/28 12:30:21;;;;;;;;;;;;;;;24.30;63.53;101985.16;2609746;31;20559;-61
2022/06/28 12:32:49;;;;;;;;;;;;;;;24.02;63.06;101988.75;2612694;36;19977;-58
2022/06/28 12:35:18;;;;;;;;;;;;;;;23.47;64.08;101996.66;2613592;31;19974;-58
2022/06/28 12:37:49;;;;;;;;;;;;;;;23.69;75.05;101992.00;2610323;36;20000;-62
2022/06/28 12:40:18;;;;;;;;;;;;;;;24.39;66.52;101988.63;2612963;36;19950;-58
2022/06/28 12:42:46;;;;;;;;;;;;;;;24.87;67.49;101990.63;2613364;36;20421;-59
2022/06/28 12:45:14;;;;;;;;;;;;;;;25.12;61.04;101994.56;2613108;36;19975;-60
2022/06/28 12:47:43;;;;;;;;;;;;;;;24.40;64.52;101991.16;2613624;36;19951;-64
2022/06/28 12:50:13;;;;;;;;;;;;;;;24.67;58.81;101991.38;2614115;36;19947;-59
2022/06/28 12:52:42;;;;;;;;;;;;;;;24.22;61.59;101985.31;2612854;36;19961;-64
2022/06/28 12:55:13;;;;;;;;;;;;;;;24.89;65.64;101977.50;2611188;31;20507;-59
2022/06/28 12:57:41;;;;;;;;;;;;;;;24.78;57.13;101976.19;2607660;36;19951;-61